createdAt,value
2022-08-26T00:01:41.628Z,20.13
2022-08-26T00:04:11.752Z,19.70
2022-08-26T00:06:38.862Z,21.43
2022-08-26T00:09:10.029Z,20.77
2022-08-26T00:11:36.847Z,20.97
2022-08-26T00:14:03.831Z,21.50
2022-08-26T00:16:31.831Z,20.70
2022-08-26T00:18:58.640Z,21.77
2022-08-26T00:21:25.339Z,20.93
2022-08-26T00:23:52.006Z,21.23
2022-08-26T00:26:19.072Z,22.60
2022-08-26T00:28:47.516Z,18.77
2022-08-26T00:31:14.479Z,20.40
2022-08-26T00:33:41.809Z,21.20
2022-08-26T00:36:09.362Z,20.07
2022-08-26T00:38:47.041Z,20.77
2022-08-26T00:41:13.929Z,21.93
2022-08-26T00:43:47.520Z,21.47
2022-08-26T00:46:19.605Z,26.23
2022-08-26T00:48:49.739Z,19.70
2022-08-26T00:51:23.862Z,20.57
2022-08-26T00:54:07.138Z,20.03
2022-08-26T00:56:44.652Z,25.90
2022-08-26T00:59:15.225Z,20.30
2022-08-26T01:01:45.976Z,19.03
2022-08-26T01:04:17.323Z,20.50
2022-08-26T01:06:45.319Z,22.17
2022-08-26T01:09:12.839Z,21.73
2022-08-26T01:11:40.071Z,20.47
2022-08-26T01:14:09.004Z,22.40
2022-08-26T01:16:36.795Z,21.17
2022-08-26T01:19:15.849Z,26.23
2022-08-26T01:22:03.956Z,26.20
2022-08-26T01:24:31.512Z,21.00
2022-08-26T01:27:03.350Z,20.37
2022-08-26T01:29:33.638Z,22.23
2022-08-26T01:32:00.505Z,22.70
2022-08-26T01:34:35.912Z,21.07
2022-08-26T01:37:08.009Z,23.33
2022-08-26T01:39:40.796Z,20.43
2022-08-26T01:42:11.623Z,19.30
2022-08-26T01:45:10.938Z,24.23
2022-08-26T01:47:39.082Z,21.60
2022-08-26T01:50:12.121Z,23.63
2022-08-26T01:52:46.599Z,20.10
2022-08-26T01:55:32.324Z,25.60
2022-08-26T01:58:05.497Z,22.47
2022-08-26T02:00:34.254Z,21.00
2022-08-26T02:03:17.856Z,24.70
2022-08-26T02:05:59.317Z,20.40
2022-08-26T02:08:40.366Z,20.90
2022-08-26T02:11:07.838Z,21.30
2022-08-26T02:13:43.287Z,21.97
2022-08-26T02:19:37.163Z,20.00
2022-08-26T02:22:07.643Z,19.73
2022-08-26T02:25:00.019Z,23.97
2022-08-26T02:27:33.472Z,20.10
2022-08-26T02:30:14.100Z,21.73
2022-08-26T02:32:44.127Z,20.47
2022-08-26T02:35:13.787Z,22.17
2022-08-26T02:37:47.032Z,20.70
2022-08-26T02:40:18.584Z,19.83
2022-08-26T02:42:45.492Z,22.37
2022-08-26T02:45:12.848Z,19.43
2022-08-26T02:47:39.667Z,19.43
2022-08-26T02:50:07.469Z,22.60
2022-08-26T02:52:34.808Z,19.23
2022-08-26T02:55:01.565Z,22.80
2022-08-26T02:57:29.098Z,19.97
2022-08-26T02:59:55.731Z,20.90
2022-08-26T03:02:23.108Z,20.07
2022-08-26T03:04:58.010Z,20.63
2022-08-26T03:07:29.112Z,20.77
2022-08-26T03:09:57.085Z,21.70
2022-08-26T03:12:24.298Z,20.70
2022-08-26T03:14:52.662Z,19.63
2022-08-26T03:17:19.370Z,21.53
2022-08-26T03:19:46.113Z,20.00
2022-08-26T03:22:14.559Z,19.63
2022-08-26T03:24:41.515Z,19.83
2022-08-26T03:27:13.194Z,21.80
2022-08-26T03:29:59.882Z,20.40
2022-08-26T03:32:27.224Z,21.50
2022-08-26T03:34:54.348Z,19.37
2022-08-26T03:37:21.579Z,19.07
2022-08-26T03:39:49.133Z,19.67
2022-08-26T03:42:16.656Z,20.67
2022-08-26T03:44:43.756Z,19.90
2022-08-26T03:47:11.086Z,21.90
2022-08-26T03:49:37.927Z,19.60
2022-08-26T03:52:05.062Z,23.53
2022-08-26T03:54:33.025Z,20.10
2022-08-26T03:57:00.083Z,23.10
2022-08-26T03:59:27.300Z,19.97
2022-08-26T04:01:54.639Z,24.80
2022-08-26T04:04:22.824Z,24.47
2022-08-26T04:06:58.284Z,23.60
2022-08-26T04:09:26.072Z,21.20
2022-08-26T04:11:54.066Z,22.37
2022-08-26T04:14:23.749Z,19.20
2022-08-26T04:16:51.620Z,19.70
2022-08-26T04:19:19.443Z,20.13
2022-08-26T04:21:47.922Z,20.13
2022-08-26T04:24:17.577Z,20.10
2022-08-26T04:26:44.584Z,22.97
2022-08-26T04:29:18.186Z,19.20
2022-08-26T04:31:46.005Z,21.40
2022-08-26T04:34:14.070Z,21.70
2022-08-26T04:36:41.343Z,20.70
2022-08-26T04:39:12.206Z,22.70
2022-08-26T04:41:39.575Z,21.20
2022-08-26T04:44:07.735Z,19.17
2022-08-26T04:46:35.296Z,21.47
2022-08-26T04:49:08.251Z,21.83
2022-08-26T04:51:35.829Z,24.47
2022-08-26T04:54:04.184Z,19.87
2022-08-26T04:56:33.942Z,20.80
2022-08-26T04:59:02.909Z,19.47
2022-08-26T05:01:31.541Z,22.07
2022-08-26T05:03:58.952Z,20.50
2022-08-26T05:06:26.177Z,19.60
2022-08-26T05:08:53.579Z,22.77
2022-08-26T05:11:21.215Z,20.30
2022-08-26T05:13:49.158Z,22.13
2022-08-26T05:16:17.088Z,38.73
2022-08-26T05:18:45.665Z,26.23
2022-08-26T05:21:29.009Z,56.33
2022-08-26T05:23:56.332Z,94.60
2022-08-26T05:26:26.006Z,104.43
2022-08-26T05:28:54.698Z,115.80
2022-08-26T05:31:29.448Z,102.37
2022-08-26T05:33:57.765Z,84.90
2022-08-26T05:36:27.463Z,86.63
2022-08-26T05:38:55.928Z,81.77
2022-08-26T05:41:34.161Z,115.10
2022-08-26T05:44:06.415Z,103.70
2022-08-26T05:46:36.603Z,123.60
2022-08-26T05:49:05.070Z,139.63
2022-08-26T05:51:33.476Z,123.10
2022-08-26T05:54:03.634Z,120.37
2022-08-26T05:56:30.658Z,126.03
2022-08-26T05:58:58.334Z,128.17
2022-08-26T06:01:27.526Z,113.10
2022-08-26T06:04:01.212Z,121.43
2022-08-26T06:06:31.660Z,111.23
2022-08-26T06:09:00.872Z,119.43
2022-08-26T06:11:29.211Z,125.07
2022-08-26T06:14:03.104Z,130.93
2022-08-26T06:16:31.978Z,131.67
2022-08-26T06:18:58.633Z,131.20
2022-08-26T06:21:29.760Z,119.03
2022-08-26T06:24:19.690Z,133.13
2022-08-26T06:26:53.030Z,133.70
2022-08-26T06:29:24.473Z,131.57
2022-08-26T06:31:52.528Z,129.47
2022-08-26T06:34:19.311Z,144.03
2022-08-26T06:36:47.367Z,139.10
2022-08-26T06:39:16.862Z,152.10
2022-08-26T06:41:45.366Z,146.93
2022-08-26T06:44:15.007Z,135.87
2022-08-26T06:46:43.111Z,144.00
2022-08-26T06:49:11.307Z,153.80
2022-08-26T06:51:40.771Z,147.83
2022-08-26T06:54:08.594Z,142.97
2022-08-26T06:56:39.487Z,136.03
2022-08-26T06:59:08.190Z,136.67
2022-08-26T07:01:44.669Z,142.07
2022-08-26T07:04:14.438Z,136.73
2022-08-26T07:06:48.741Z,134.90
2022-08-26T07:09:16.839Z,128.77
2022-08-26T07:11:44.546Z,148.23
2022-08-26T07:14:11.389Z,133.97
2022-08-26T07:16:40.035Z,122.50
2022-08-26T07:19:10.930Z,131.57
2022-08-26T07:21:40.380Z,124.73
2022-08-26T07:24:08.161Z,120.70
2022-08-26T07:26:35.132Z,130.70
2022-08-26T07:29:02.268Z,126.80
2022-08-26T07:31:37.380Z,134.20
2022-08-26T07:34:07.599Z,129.20
2022-08-26T07:36:34.898Z,129.83
2022-08-26T07:39:01.738Z,122.67
2022-08-26T07:43:56.782Z,117.53
2022-08-26T07:46:29.915Z,120.30
2022-08-26T07:48:57.206Z,115.83
2022-08-26T07:51:24.826Z,102.90
2022-08-26T07:53:52.311Z,111.83
2022-08-26T07:56:20.151Z,104.50
2022-08-26T07:58:51.528Z,109.77
2022-08-26T08:01:20.658Z,117.67
2022-08-26T08:03:50.503Z,103.27
2022-08-26T08:06:18.669Z,109.87
2022-08-26T08:08:46.299Z,106.67
2022-08-26T08:11:14.453Z,109.23
2022-08-26T08:13:41.262Z,104.57
2022-08-26T08:16:12.688Z,99.53
2022-08-26T08:18:40.460Z,96.20
2022-08-26T08:21:23.803Z,95.20
2022-08-26T08:23:52.889Z,91.43
2022-08-26T08:26:19.848Z,91.10
2022-08-26T08:28:47.774Z,86.80
2022-08-26T08:31:54.306Z,78.23
2022-08-26T08:34:10.946Z,79.97
2022-08-26T08:36:37.653Z,76.87
2022-08-26T08:39:05.149Z,84.13
2022-08-26T08:41:50.998Z,76.23
2022-08-26T08:44:30.593Z,73.33
2022-08-26T08:47:06.264Z,69.07
2022-08-26T08:49:34.501Z,74.17
2022-08-26T08:52:18.367Z,74.40
2022-08-26T08:54:46.556Z,63.00
2022-08-26T08:57:53.625Z,59.23
2022-08-26T09:00:30.387Z,67.70
2022-08-26T09:03:10.763Z,73.50
2022-08-26T09:05:45.474Z,64.40
2022-08-26T09:08:22.680Z,65.80
2022-08-26T09:11:00.320Z,66.10
2022-08-26T09:13:29.061Z,60.97
2022-08-26T09:16:15.709Z,56.87
2022-08-26T09:19:07.568Z,54.37
2022-08-26T09:21:34.627Z,58.73
2022-08-26T09:24:01.612Z,57.70
2022-08-26T09:26:40.074Z,58.10
2022-08-26T09:31:51.394Z,55.70
2022-08-26T09:34:25.625Z,55.37
2022-08-26T09:36:55.052Z,52.17
2022-08-26T09:39:37.831Z,48.40
2022-08-26T09:42:04.784Z,49.90
2022-08-26T09:44:32.568Z,57.53
2022-08-26T09:47:04.010Z,49.63
2022-08-26T09:49:36.112Z,50.63
2022-08-26T09:52:23.731Z,47.83
2022-08-26T09:55:03.391Z,46.43
2022-08-26T09:57:35.804Z,47.10
2022-08-26T10:00:29.571Z,55.17
2022-08-26T10:02:58.875Z,46.90
2022-08-26T10:05:45.754Z,52.53
2022-08-26T10:08:34.326Z,43.83
2022-08-26T10:11:05.469Z,43.67
2022-08-26T10:13:39.634Z,46.17
2022-08-26T10:16:10.883Z,41.00
2022-08-26T10:18:44.876Z,42.00
2022-08-26T10:21:21.091Z,42.10
2022-08-26T10:23:51.581Z,44.20
2022-08-26T10:26:27.888Z,40.83
2022-08-26T10:29:06.280Z,40.00
2022-08-26T10:31:46.384Z,35.23
2022-08-26T10:34:16.485Z,33.20
2022-08-26T10:37:13.947Z,36.80
2022-08-26T10:40:10.072Z,36.33
2022-08-26T10:43:08.466Z,34.93
2022-08-26T10:45:50.738Z,37.03
2022-08-26T10:48:42.029Z,42.80
2022-08-26T10:51:12.503Z,40.17
2022-08-26T10:53:57.085Z,39.23
2022-08-26T10:56:38.477Z,40.57
2022-08-26T10:59:31.484Z,33.87
2022-08-26T11:02:14.722Z,40.13
2022-08-26T11:04:58.839Z,37.93
2022-08-26T11:08:11.538Z,34.80
2022-08-26T11:10:38.408Z,38.87
2022-08-26T11:13:06.854Z,36.40
2022-08-26T11:15:36.804Z,37.70
2022-08-26T11:18:46.088Z,37.73
2022-08-26T11:21:43.814Z,38.30
2022-08-26T11:24:41.632Z,38.70
2022-08-26T11:27:24.795Z,44.30
2022-08-26T11:30:03.403Z,46.47
2022-08-26T11:32:39.176Z,42.60
2022-08-26T11:35:19.476Z,40.37
2022-08-26T11:38:17.944Z,46.50
2022-08-26T11:40:45.220Z,40.57
2022-08-26T11:43:23.023Z,40.87
2022-08-26T11:46:05.766Z,44.80
2022-08-26T11:48:36.972Z,39.87
2022-08-26T11:51:07.794Z,41.97
2022-08-26T11:53:41.026Z,40.83
2022-08-26T11:56:17.459Z,36.43
2022-08-26T11:58:46.791Z,42.13
2022-08-26T12:01:27.800Z,49.23
2022-08-26T12:03:59.406Z,44.03
2022-08-26T12:06:45.880Z,41.57
2022-08-26T12:09:21.388Z,37.97
2022-08-26T12:11:48.138Z,38.87
2022-08-26T12:14:20.653Z,35.77
2022-08-26T12:16:48.333Z,38.83
2022-08-26T12:19:33.401Z,39.20
2022-08-26T12:22:15.092Z,39.90
2022-08-26T12:24:48.911Z,43.27
2022-08-26T12:27:23.888Z,41.00
2022-08-26T12:30:13.852Z,35.13
2022-08-26T12:32:57.322Z,30.53
2022-08-26T12:35:26.773Z,29.57
2022-08-26T12:37:54.529Z,29.60
2022-08-26T12:40:31.012Z,23.70
2022-08-26T12:43:00.422Z,23.47
2022-08-26T12:45:44.107Z,28.50
2022-08-26T12:48:26.801Z,27.67
2022-08-26T12:50:53.876Z,28.83
2022-08-26T12:53:24.988Z,36.00
2022-08-26T12:56:03.358Z,26.90
2022-08-26T12:58:39.780Z,28.73
2022-08-26T13:01:06.822Z,24.00
2022-08-26T13:03:43.510Z,23.20
2022-08-26T13:06:22.319Z,28.73
2022-08-26T13:09:18.562Z,23.60
2022-08-26T13:11:45.393Z,24.30
2022-08-26T13:14:21.198Z,24.67
2022-08-26T13:16:52.054Z,23.67
2022-08-26T13:19:24.084Z,24.17
2022-08-26T13:21:53.919Z,26.80
2022-08-26T13:24:25.167Z,23.97
2022-08-26T13:26:51.968Z,31.03
2022-08-26T13:29:19.271Z,33.93
2022-08-26T13:31:46.372Z,35.53
2022-08-26T13:34:18.848Z,32.77
2022-08-26T13:36:49.946Z,26.80
2022-08-26T13:39:17.875Z,36.07
2022-08-26T13:41:44.704Z,30.57
2022-08-26T13:44:11.707Z,33.40
2022-08-26T13:46:38.645Z,32.50
2022-08-26T13:49:05.682Z,30.33
2022-08-26T13:51:33.267Z,30.20
2022-08-26T13:54:00.606Z,26.27
2022-08-26T13:56:32.201Z,29.50
2022-08-26T13:59:00.993Z,32.37
2022-08-26T14:01:29.444Z,26.37
2022-08-26T14:03:56.363Z,25.50
2022-08-26T14:06:23.328Z,26.70
2022-08-26T14:08:49.992Z,33.37
2022-08-26T14:11:17.385Z,26.77
2022-08-26T14:13:44.067Z,30.07
2022-08-26T14:16:15.856Z,25.10
2022-08-26T14:18:47.311Z,22.60
2022-08-26T14:21:16.800Z,22.10
2022-08-26T14:23:43.463Z,24.93
2022-08-26T14:26:10.973Z,22.33
2022-08-26T14:28:43.613Z,25.57
2022-08-26T14:31:10.430Z,22.57
2022-08-26T14:33:38.118Z,23.33
2022-08-26T14:36:24.885Z,26.30
2022-08-26T14:38:52.262Z,23.37
2022-08-26T14:41:20.782Z,21.23
2022-08-26T14:44:05.756Z,21.57
2022-08-26T14:46:37.251Z,21.73
2022-08-26T14:49:07.303Z,19.07
2022-08-26T14:51:36.660Z,21.67
2022-08-26T14:54:12.543Z,21.80
2022-08-26T14:56:54.514Z,25.67
2022-08-26T14:59:29.697Z,24.97
2022-08-26T15:01:57.416Z,24.07
2022-08-26T15:04:24.767Z,23.97
2022-08-26T15:06:53.434Z,32.53
2022-08-26T15:09:20.283Z,28.30
2022-08-26T15:11:47.678Z,26.20
2022-08-26T15:14:19.629Z,20.90
2022-08-26T15:16:48.604Z,24.53
2022-08-26T15:19:15.922Z,26.77
2022-08-26T15:21:45.275Z,26.77
2022-08-26T15:24:12.905Z,21.10
2022-08-26T15:26:40.281Z,24.93
2022-08-26T15:29:07.318Z,29.03
2022-08-26T15:31:35.463Z,30.43
2022-08-26T15:34:10.987Z,27.20
2022-08-26T15:36:42.614Z,30.90
2022-08-26T15:39:09.242Z,23.97
2022-08-26T15:41:35.984Z,25.80
2022-08-26T15:44:04.535Z,25.50
2022-08-26T15:46:31.916Z,24.87
2022-08-26T15:48:58.776Z,23.03
2022-08-26T15:51:30.218Z,26.03
2022-08-26T15:53:58.423Z,24.67
2022-08-26T15:56:31.466Z,26.40
2022-08-26T15:58:59.811Z,20.90
2022-08-26T16:01:28.010Z,25.03
2022-08-26T16:03:55.836Z,24.67
2022-08-26T16:06:27.361Z,22.77
2022-08-26T16:08:56.072Z,22.10
2022-08-26T16:11:23.496Z,20.73
2022-08-26T16:13:50.552Z,23.30
2022-08-26T16:16:17.513Z,23.37
2022-08-26T16:18:44.989Z,21.37
2022-08-26T16:21:18.100Z,21.70
2022-08-26T16:23:48.444Z,23.30
2022-08-26T16:26:18.910Z,19.67
2022-08-26T16:28:45.649Z,20.80
2022-08-26T16:31:12.822Z,21.47
2022-08-26T16:33:40.654Z,21.17
2022-08-26T16:36:08.383Z,22.27
2022-08-26T16:38:35.671Z,25.97
2022-08-26T16:41:02.368Z,19.17
2022-08-26T16:43:29.179Z,26.10
2022-08-26T16:45:56.446Z,19.00
2022-08-26T16:48:23.671Z,24.40
2022-08-26T16:50:51.323Z,19.57
2022-08-26T16:53:18.692Z,21.23
2022-08-26T16:55:47.218Z,19.40
2022-08-26T16:58:14.612Z,20.40
2022-08-26T17:00:41.520Z,23.73
2022-08-26T17:03:08.623Z,27.77
2022-08-26T17:05:36.246Z,22.67
2022-08-26T17:08:03.880Z,22.40
2022-08-26T17:10:31.409Z,24.13
2022-08-26T17:12:58.456Z,20.40
2022-08-26T17:15:25.684Z,24.50
2022-08-26T17:17:53.703Z,27.00
2022-08-26T17:20:22.305Z,24.47
2022-08-26T17:22:50.785Z,30.13
2022-08-26T17:25:28.056Z,27.63
2022-08-26T17:30:27.120Z,23.47
2022-08-26T17:32:56.540Z,24.60
2022-08-26T17:35:23.507Z,27.03
2022-08-26T17:37:50.495Z,29.20
2022-08-26T17:40:21.813Z,26.63
2022-08-26T17:42:48.864Z,23.00
2022-08-26T17:45:15.735Z,22.90
2022-08-26T17:47:42.790Z,20.90
2022-08-26T17:50:12.767Z,19.10
2022-08-26T17:52:40.636Z,26.80
2022-08-26T17:55:09.275Z,20.37
2022-08-26T17:57:40.608Z,22.77
2022-08-26T18:00:12.944Z,26.07
2022-08-26T18:02:40.626Z,32.97
2022-08-26T18:05:09.173Z,21.83
2022-08-26T18:07:43.562Z,26.30
2022-08-26T18:10:13.642Z,21.80
2022-08-26T18:12:41.534Z,24.47
2022-08-26T18:15:10.049Z,25.03
2022-08-26T18:17:39.031Z,22.37
2022-08-26T18:20:11.386Z,29.83
2022-08-26T18:22:38.108Z,23.63
2022-08-26T18:25:06.591Z,22.20
2022-08-26T18:27:35.529Z,21.20
2022-08-26T18:30:04.620Z,38.53
2022-08-26T18:32:31.258Z,23.33
2022-08-26T18:34:57.919Z,24.00
2022-08-26T18:37:25.808Z,25.77
2022-08-26T18:39:54.791Z,24.97
2022-08-26T18:42:21.514Z,29.20
2022-08-26T18:44:50.791Z,25.03
2022-08-26T18:47:19.813Z,27.30
2022-08-26T18:49:47.247Z,23.40
2022-08-26T18:52:14.508Z,26.33
2022-08-26T18:54:41.212Z,21.40
2022-08-26T18:57:08.053Z,33.50
2022-08-26T18:59:34.762Z,27.70
2022-08-26T19:02:01.583Z,27.43
2022-08-26T19:04:28.459Z,23.60
2022-08-26T19:06:55.925Z,22.70
2022-08-26T19:09:22.621Z,27.67
2022-08-26T19:11:50.797Z,27.23
2022-08-26T19:14:18.167Z,28.43
2022-08-26T19:16:47.181Z,23.70
2022-08-26T19:19:14.675Z,24.87
2022-08-26T19:21:42.091Z,21.93
2022-08-26T19:24:15.243Z,24.43
2022-08-26T19:26:43.693Z,21.60
2022-08-26T19:29:10.593Z,24.63
2022-08-26T19:31:37.494Z,20.23
2022-08-26T19:34:05.780Z,26.20
2022-08-26T19:36:32.954Z,20.40
2022-08-26T19:39:01.528Z,28.00
2022-08-26T19:41:36.621Z,19.53
2022-08-26T19:44:07.288Z,26.40
2022-08-26T19:46:34.066Z,21.70
2022-08-26T19:49:00.724Z,21.37
2022-08-26T19:51:29.759Z,21.20
2022-08-26T19:53:58.946Z,22.87
2022-08-26T19:56:26.882Z,23.43
2022-08-26T19:58:54.367Z,24.13
2022-08-26T20:01:21.367Z,26.03
2022-08-26T20:03:48.848Z,23.10
2022-08-26T20:06:17.092Z,18.77
2022-08-26T20:08:47.087Z,21.43
2022-08-26T20:11:17.248Z,20.23
2022-08-26T20:13:46.708Z,17.83
2022-08-26T20:16:14.371Z,18.50
2022-08-26T20:19:03.191Z,20.77
2022-08-26T20:21:34.039Z,23.20
2022-08-26T20:24:10.048Z,24.07
2022-08-26T20:26:38.710Z,21.07
2022-08-26T20:29:06.461Z,27.60
2022-08-26T20:31:35.050Z,23.10
2022-08-26T20:34:05.508Z,20.83
2022-08-26T20:36:33.275Z,18.70
2022-08-26T20:39:00.050Z,21.70
2022-08-26T20:41:27.504Z,23.37
2022-08-26T20:43:56.082Z,21.10
2022-08-26T20:46:25.865Z,20.20
2022-08-26T20:48:53.785Z,21.53
2022-08-26T20:51:21.252Z,20.93
2022-08-26T20:53:47.981Z,18.97
2022-08-26T20:56:16.413Z,23.70
2022-08-26T20:58:43.295Z,19.43
2022-08-26T21:01:20.428Z,20.30
2022-08-26T21:03:47.867Z,22.77
2022-08-26T21:06:14.748Z,23.73
2022-08-26T21:08:43.362Z,20.63
2022-08-26T21:11:11.689Z,19.50
2022-08-26T21:13:48.572Z,24.03
2022-08-26T21:16:26.272Z,21.37
2022-08-26T21:18:53.013Z,22.60
2022-08-26T21:21:20.169Z,23.87
2022-08-26T21:23:51.942Z,19.77
2022-08-26T21:26:19.046Z,20.50
2022-08-26T21:28:46.323Z,20.20
2022-08-26T21:31:18.597Z,20.70
2022-08-26T21:33:45.711Z,17.97
2022-08-26T21:36:13.640Z,19.33
2022-08-26T21:38:41.251Z,16.50
2022-08-26T21:41:16.328Z,20.40
2022-08-26T21:43:43.061Z,20.60
2022-08-26T21:46:14.626Z,20.23
2022-08-26T21:48:45.672Z,25.97
2022-08-26T21:51:15.859Z,22.47
2022-08-26T21:53:42.667Z,18.97
2022-08-26T21:56:12.363Z,19.87
2022-08-26T21:58:39.122Z,24.60
2022-08-26T22:01:16.962Z,24.33
2022-08-26T22:03:47.486Z,22.67
2022-08-26T22:06:16.367Z,26.93
2022-08-26T22:08:43.464Z,26.27
2022-08-26T22:11:10.461Z,24.90
2022-08-26T22:13:39.356Z,27.10
2022-08-26T22:16:07.243Z,23.23
2022-08-26T22:18:34.600Z,30.33
2022-08-26T22:21:08.626Z,22.10
2022-08-26T22:23:37.636Z,23.80
2022-08-26T22:26:06.155Z,26.00
2022-08-26T22:28:32.866Z,26.07
2022-08-26T22:30:59.646Z,24.20
2022-08-26T22:33:26.338Z,25.73
2022-08-26T22:35:53.966Z,25.80
2022-08-26T22:38:23.633Z,26.60
2022-08-26T22:40:56.067Z,28.60
2022-08-26T22:43:25.367Z,26.20
2022-08-26T22:45:52.995Z,28.63
2022-08-26T22:48:22.571Z,38.13
2022-08-26T22:50:50.401Z,29.43
2022-08-26T22:53:18.255Z,28.67
2022-08-26T22:55:45.055Z,34.43
2022-08-26T22:58:14.404Z,28.20
2022-08-26T23:00:42.522Z,33.03
2022-08-26T23:03:11.353Z,29.40
2022-08-26T23:05:39.225Z,29.13
2022-08-26T23:08:07.034Z,33.40
2022-08-26T23:10:33.746Z,41.10
2022-08-26T23:13:00.610Z,36.17
2022-08-26T23:15:27.327Z,37.37
2022-08-26T23:17:58.650Z,34.33
2022-08-26T23:20:27.362Z,27.83
2022-08-26T23:22:55.078Z,30.90
2022-08-26T23:25:22.306Z,30.33
2022-08-26T23:27:52.081Z,31.50
2022-08-26T23:30:23.274Z,32.47
2022-08-26T23:32:50.383Z,33.53
2022-08-26T23:35:20.053Z,33.47
2022-08-26T23:37:48.113Z,30.63
2022-08-26T23:40:26.490Z,33.27
2022-08-26T23:42:55.584Z,32.57
2022-08-26T23:45:23.576Z,32.17
2022-08-26T23:47:50.910Z,39.43
2022-08-26T23:50:19.917Z,31.50
2022-08-26T23:53:05.654Z,37.60
2022-08-26T23:55:37.414Z,42.23
2022-08-26T23:58:05.224Z,32.80
